createdAt,value
2022-10-31T00:01:29.828Z,12.35
2022-10-31T00:03:56.507Z,9.25
2022-10-31T00:06:23.232Z,10.40
2022-10-31T00:08:50.050Z,14.73
2022-10-31T00:11:16.778Z,13.88
2022-10-31T00:13:43.498Z,16.90
2022-10-31T00:16:10.327Z,12.77
2022-10-31T00:18:37.036Z,11.07
2022-10-31T00:21:03.772Z,11.38
2022-10-31T00:23:30.516Z,8.50
2022-10-31T00:25:57.259Z,10.82
2022-10-31T00:28:23.961Z,8.52
2022-10-31T00:30:50.720Z,10.45
2022-10-31T00:33:17.451Z,9.40
2022-10-31T00:35:44.230Z,10.45
2022-10-31T00:38:11.004Z,12.60
2022-10-31T00:40:37.685Z,11.18
2022-10-31T00:43:04.859Z,11.48
2022-10-31T00:45:31.766Z,7.95
2022-10-31T00:47:58.827Z,7.88
2022-10-31T00:50:25.850Z,11.40
2022-10-31T00:52:52.554Z,11.38
2022-10-31T00:55:19.423Z,10.57
2022-10-31T00:57:46.066Z,10.13
2022-10-31T01:00:12.945Z,11.23
2022-10-31T01:02:40.840Z,8.75
2022-10-31T01:05:08.233Z,9.48
2022-10-31T01:07:34.979Z,11.32
2022-10-31T01:10:01.741Z,11.70
2022-10-31T01:12:28.556Z,9.77
2022-10-31T01:14:55.233Z,7.00
2022-10-31T01:17:22.029Z,11.73
2022-10-31T01:19:48.766Z,10.55
2022-10-31T01:22:15.506Z,9.07
2022-10-31T01:24:42.171Z,9.82
2022-10-31T01:27:08.901Z,13.00
2022-10-31T01:29:35.648Z,7.22
2022-10-31T01:32:02.389Z,10.95
2022-10-31T01:34:29.075Z,13.82
2022-10-31T01:36:55.830Z,16.10
2022-10-31T01:39:22.844Z,15.70
2022-10-31T01:41:49.689Z,14.40
2022-10-31T01:44:16.798Z,18.75
2022-10-31T01:46:43.884Z,18.33
2022-10-31T01:49:10.621Z,15.90
2022-10-31T01:51:37.326Z,17.67
2022-10-31T01:54:04.113Z,13.95
2022-10-31T01:56:30.893Z,19.60
2022-10-31T01:58:57.568Z,20.20
2022-10-31T02:01:24.517Z,19.60
2022-10-31T02:03:51.428Z,17.58
2022-10-31T02:06:21.361Z,20.88
2022-10-31T02:08:48.077Z,23.23
2022-10-31T02:11:14.802Z,15.55
2022-10-31T02:13:42.159Z,20.42
2022-10-31T02:16:09.561Z,19.05
2022-10-31T02:18:36.326Z,13.73
2022-10-31T02:21:03.623Z,18.15
2022-10-31T02:23:31.267Z,18.38
2022-10-31T02:26:00.584Z,20.27
2022-10-31T02:28:27.512Z,17.00
2022-10-31T02:30:54.226Z,17.50
2022-10-31T02:33:21.503Z,19.30
2022-10-31T02:35:48.945Z,24.00
2022-10-31T02:38:15.698Z,15.20
2022-10-31T02:40:42.480Z,20.77
2022-10-31T02:43:41.219Z,19.15
2022-10-31T02:46:08.373Z,15.77
2022-10-31T02:48:36.315Z,21.50
2022-10-31T02:51:03.149Z,20.88
2022-10-31T02:53:29.856Z,20.85
2022-10-31T02:55:56.951Z,21.90
2022-10-31T02:58:24.235Z,28.02
2022-10-31T03:00:52.984Z,19.30
2022-10-31T03:03:20.004Z,24.30
2022-10-31T03:05:46.708Z,16.55
2022-10-31T03:08:13.355Z,16.38
2022-10-31T03:10:40.151Z,21.70
2022-10-31T03:13:06.863Z,24.58
2022-10-31T03:15:33.770Z,18.67
2022-10-31T03:18:00.712Z,20.98
2022-10-31T03:20:28.310Z,23.60
2022-10-31T03:22:55.012Z,20.42
2022-10-31T03:25:22.687Z,16.85
2022-10-31T03:27:49.371Z,23.42
2022-10-31T03:30:16.249Z,17.23
2022-10-31T03:32:56.699Z,22.70
2022-10-31T03:35:23.590Z,24.02
2022-10-31T03:37:50.306Z,23.27
2022-10-31T03:40:17.058Z,20.98
2022-10-31T03:42:43.914Z,20.83
2022-10-31T03:45:10.770Z,18.30
2022-10-31T03:47:37.431Z,17.35
2022-10-31T03:50:04.582Z,18.48
2022-10-31T03:52:31.367Z,18.55
2022-10-31T03:54:58.153Z,24.13
2022-10-31T03:57:24.879Z,25.65
2022-10-31T03:59:51.757Z,19.05
2022-10-31T04:02:18.599Z,23.90
2022-10-31T04:04:45.457Z,22.48
2022-10-31T04:07:12.870Z,21.10
2022-10-31T04:09:39.653Z,18.52
2022-10-31T04:12:07.658Z,20.25
2022-10-31T04:14:54.728Z,24.73
2022-10-31T04:17:22.796Z,21.30
2022-10-31T04:19:50.072Z,18.88
2022-10-31T04:22:16.996Z,21.35
2022-10-31T04:24:43.787Z,24.67
2022-10-31T04:27:14.392Z,26.52
2022-10-31T04:29:42.576Z,25.25
2022-10-31T04:32:11.194Z,15.55
2022-10-31T04:34:38.202Z,17.70
2022-10-31T04:37:05.357Z,19.67
2022-10-31T04:39:33.063Z,18.75
2022-10-31T04:42:18.293Z,26.52
2022-10-31T04:44:45.100Z,21.10
2022-10-31T04:47:11.914Z,15.68
2022-10-31T04:49:38.688Z,18.98
2022-10-31T04:52:05.789Z,18.55
2022-10-31T04:54:33.431Z,16.85
2022-10-31T04:57:20.374Z,20.67
2022-10-31T04:59:48.140Z,17.33
2022-10-31T05:02:14.967Z,18.30
2022-10-31T05:04:50.846Z,15.93
2022-10-31T05:07:18.414Z,15.82
2022-10-31T05:09:45.133Z,19.20
2022-10-31T05:12:12.991Z,16.83
2022-10-31T05:15:14.441Z,17.83
2022-10-31T05:17:59.775Z,16.07
2022-10-31T05:20:45.029Z,19.25
2022-10-31T05:23:32.017Z,19.73
2022-10-31T05:25:59.940Z,15.05
2022-10-31T05:28:27.094Z,18.88
2022-10-31T05:30:54.415Z,17.65
2022-10-31T05:33:21.848Z,14.63
2022-10-31T05:35:51.049Z,13.85
2022-10-31T05:38:36.320Z,19.98
2022-10-31T05:41:11.462Z,15.25
2022-10-31T05:43:42.184Z,17.85
2022-10-31T05:46:09.920Z,16.05
2022-10-31T05:49:00.179Z,17.20
2022-10-31T05:51:29.364Z,15.63
2022-10-31T05:53:56.261Z,8.80
2022-10-31T05:56:23.368Z,12.57
2022-10-31T05:58:50.107Z,12.93
2022-10-31T06:01:16.886Z,14.25
2022-10-31T06:03:45.757Z,15.55
2022-10-31T06:06:16.013Z,9.30
2022-10-31T06:08:42.730Z,17.08
2022-10-31T06:11:15.110Z,9.95
2022-10-31T06:14:00.284Z,16.73
2022-10-31T06:16:35.557Z,13.15
2022-10-31T06:19:20.850Z,31.42
2022-10-31T06:21:47.563Z,27.67
2022-10-31T06:24:14.360Z,19.90
2022-10-31T06:27:04.007Z,19.92
2022-10-31T06:29:31.791Z,14.05
2022-10-31T06:32:11.267Z,15.35
2022-10-31T06:34:41.457Z,23.77
2022-10-31T06:37:09.027Z,14.20
2022-10-31T06:39:35.818Z,17.48
2022-10-31T06:42:02.702Z,22.15
2022-10-31T06:44:30.552Z,13.68
2022-10-31T06:46:59.902Z,13.25
2022-10-31T06:49:52.678Z,16.30
2022-10-31T06:52:24.384Z,16.92
2022-10-31T06:54:52.267Z,16.17
2022-10-31T06:57:21.200Z,15.88
2022-10-31T06:59:47.929Z,12.88
2022-10-31T07:02:14.670Z,14.40
2022-10-31T07:04:43.555Z,14.35
2022-10-31T07:07:13.767Z,11.10
2022-10-31T07:09:40.649Z,14.32
2022-10-31T07:12:09.912Z,14.50
2022-10-31T07:14:39.870Z,11.82
2022-10-31T07:17:06.911Z,13.23
2022-10-31T07:19:38.118Z,16.40
2022-10-31T07:22:04.854Z,13.27
2022-10-31T07:24:32.999Z,11.68
2022-10-31T07:27:17.925Z,11.20
2022-10-31T07:29:46.179Z,15.25
2022-10-31T07:32:13.297Z,13.45
2022-10-31T07:34:47.596Z,16.13
2022-10-31T07:37:14.484Z,16.40
2022-10-31T07:39:41.204Z,17.73
2022-10-31T07:42:08.047Z,17.27
2022-10-31T07:44:36.254Z,16.65
2022-10-31T07:47:38.191Z,14.75
2022-10-31T07:50:23.607Z,24.23
2022-10-31T07:53:08.984Z,19.65
2022-10-31T07:55:50.185Z,17.42
2022-10-31T07:58:18.995Z,10.98
2022-10-31T08:00:46.357Z,14.15
2022-10-31T08:03:16.459Z,17.80
2022-10-31T08:06:03.435Z,9.25
2022-10-31T08:08:36.014Z,15.20
2022-10-31T08:11:05.283Z,14.00
2022-10-31T08:13:32.585Z,24.30
2022-10-31T08:16:04.485Z,13.40
2022-10-31T08:18:33.783Z,16.25
2022-10-31T08:21:00.871Z,19.95
2022-10-31T08:23:27.600Z,11.23
2022-10-31T08:25:55.410Z,15.43
2022-10-31T08:28:23.594Z,20.50
2022-10-31T08:30:52.111Z,12.38
2022-10-31T08:33:37.100Z,18.60
2022-10-31T08:36:36.206Z,15.10
2022-10-31T08:39:21.294Z,18.58
2022-10-31T08:41:47.996Z,14.07
2022-10-31T08:44:14.790Z,12.30
2022-10-31T08:46:43.800Z,18.48
2022-10-31T08:49:10.484Z,16.20
2022-10-31T08:51:37.540Z,15.88
2022-10-31T08:54:04.268Z,17.00
2022-10-31T08:56:33.798Z,15.70
2022-10-31T08:59:03.211Z,22.05
2022-10-31T09:01:40.405Z,16.60
2022-10-31T09:04:07.261Z,13.73
2022-10-31T09:06:33.977Z,29.02
2022-10-31T09:09:00.696Z,17.80
2022-10-31T09:11:27.429Z,17.08
2022-10-31T09:14:12.995Z,21.23
2022-10-31T09:16:39.708Z,19.05
2022-10-31T09:19:11.737Z,23.02
2022-10-31T09:21:38.758Z,12.25
2022-10-31T09:24:05.632Z,13.73
2022-10-31T09:26:32.398Z,14.57
2022-10-31T09:29:12.979Z,15.70
2022-10-31T09:31:44.698Z,21.35
2022-10-31T09:34:25.551Z,15.95
2022-10-31T09:37:02.211Z,16.80
2022-10-31T09:39:29.025Z,16.20
2022-10-31T09:42:02.375Z,18.50
2022-10-31T09:44:31.484Z,18.02
2022-10-31T09:46:58.928Z,12.10
2022-10-31T09:49:29.004Z,12.30
2022-10-31T09:51:55.813Z,15.15
2022-10-31T09:54:27.876Z,15.90
2022-10-31T09:56:54.740Z,15.52
2022-10-31T09:59:21.429Z,16.95
2022-10-31T10:01:48.199Z,14.82
2022-10-31T10:04:19.818Z,7.85
2022-10-31T10:07:04.052Z,13.63
2022-10-31T10:09:45.557Z,15.50
2022-10-31T10:12:47.360Z,14.77
2022-10-31T10:15:14.198Z,9.05
2022-10-31T10:17:40.930Z,17.13
2022-10-31T10:20:07.691Z,14.52
2022-10-31T10:22:34.467Z,10.68
2022-10-31T10:25:01.173Z,11.35
2022-10-31T10:27:27.887Z,12.15
2022-10-31T10:29:54.563Z,10.60
2022-10-31T10:32:21.293Z,15.90
2022-10-31T10:34:48.029Z,12.65
2022-10-31T10:37:14.719Z,15.07
2022-10-31T10:39:41.393Z,14.50
2022-10-31T10:42:26.723Z,7.88
2022-10-31T10:45:12.368Z,9.48
2022-10-31T10:47:39.795Z,10.60
2022-10-31T10:50:06.532Z,9.80
2022-10-31T10:52:43.436Z,9.70
2022-10-31T10:55:14.429Z,10.77
2022-10-31T10:57:41.077Z,10.60
2022-10-31T11:00:07.772Z,12.18
2022-10-31T11:02:34.469Z,12.98
2022-10-31T11:05:01.121Z,18.33
2022-10-31T11:07:27.811Z,14.82
2022-10-31T11:09:54.506Z,12.55
2022-10-31T11:12:21.185Z,8.10
2022-10-31T11:14:47.968Z,14.23
2022-10-31T11:17:14.869Z,11.48
2022-10-31T11:19:41.518Z,9.25
2022-10-31T11:22:08.700Z,10.52
2022-10-31T11:24:35.415Z,11.48
2022-10-31T11:27:02.094Z,8.52
2022-10-31T11:29:28.808Z,11.20
2022-10-31T11:31:55.469Z,12.07
2022-10-31T11:34:22.206Z,11.05
2022-10-31T11:36:49.045Z,6.75
2022-10-31T11:39:15.673Z,52.78
2022-10-31T11:41:43.695Z,17.92
2022-10-31T11:44:10.410Z,9.70
2022-10-31T11:46:37.124Z,11.38
2022-10-31T11:49:03.846Z,8.65
2022-10-31T11:51:30.469Z,7.25
2022-10-31T11:54:00.095Z,9.77
2022-10-31T11:56:29.640Z,10.70
2022-10-31T11:58:56.983Z,10.23
2022-10-31T12:01:23.734Z,10.63
2022-10-31T12:03:50.546Z,10.88
2022-10-31T12:06:18.879Z,9.25
2022-10-31T12:08:45.621Z,9.43
2022-10-31T12:11:12.275Z,9.98
2022-10-31T12:13:39.039Z,7.38
2022-10-31T12:16:05.704Z,7.43
2022-10-31T12:18:32.375Z,9.80
2022-10-31T12:20:59.346Z,6.78
2022-10-31T12:23:25.999Z,9.93
2022-10-31T12:25:52.742Z,9.55
2022-10-31T12:28:19.512Z,8.70
2022-10-31T12:30:46.159Z,8.88
2022-10-31T12:33:12.827Z,5.90
2022-10-31T12:38:11.246Z,5.75
2022-10-31T12:40:37.942Z,9.50
2022-10-31T12:43:04.611Z,6.10
2022-10-31T12:45:31.354Z,9.10
2022-10-31T12:47:58.079Z,9.75
2022-10-31T12:50:24.812Z,7.63
2022-10-31T12:52:51.503Z,7.57
2022-10-31T12:55:18.475Z,8.90
2022-10-31T12:57:45.175Z,8.38
2022-10-31T13:00:11.905Z,5.90
2022-10-31T13:02:39.816Z,7.57
2022-10-31T13:05:06.482Z,7.57
2022-10-31T13:07:33.209Z,8.60
2022-10-31T13:09:59.938Z,6.47
2022-10-31T13:12:26.672Z,9.27
2022-10-31T13:14:54.310Z,6.50
2022-10-31T13:17:21.821Z,8.70
2022-10-31T13:19:48.698Z,7.20
2022-10-31T13:22:15.372Z,7.03
2022-10-31T13:24:42.088Z,7.30
2022-10-31T13:27:08.750Z,5.38
2022-10-31T13:29:35.429Z,6.13
2022-10-31T13:32:02.089Z,9.48
2022-10-31T13:34:28.780Z,6.78
2022-10-31T13:36:55.614Z,6.07
2022-10-31T13:39:22.342Z,5.18
2022-10-31T13:41:49.114Z,4.70
2022-10-31T13:44:15.798Z,8.20
2022-10-31T13:49:10.158Z,6.28
2022-10-31T13:51:36.893Z,5.53
2022-10-31T13:54:03.648Z,7.53
2022-10-31T13:56:30.469Z,5.55
2022-10-31T13:58:57.214Z,8.32
2022-10-31T14:01:24.090Z,6.05
2022-10-31T14:04:13.967Z,7.47
2022-10-31T14:06:39.927Z,3.78
2022-10-31T14:09:06.616Z,8.98
2022-10-31T14:11:36.279Z,6.63
2022-10-31T14:14:03.893Z,5.47
2022-10-31T14:16:31.346Z,9.63
2022-10-31T14:18:58.055Z,7.93
2022-10-31T14:21:24.931Z,7.30
2022-10-31T14:23:54.132Z,7.32
2022-10-31T14:26:21.866Z,5.82
2022-10-31T14:28:48.569Z,6.68
2022-10-31T14:31:15.316Z,7.13
2022-10-31T14:33:42.046Z,6.47
2022-10-31T14:36:10.429Z,5.80
2022-10-31T14:38:37.165Z,9.27
2022-10-31T14:41:03.826Z,4.22
2022-10-31T14:43:30.559Z,5.10
2022-10-31T14:45:57.289Z,6.57
2022-10-31T14:48:24.074Z,8.32
2022-10-31T14:50:50.747Z,6.85
2022-10-31T14:53:17.458Z,6.97
2022-10-31T14:55:44.211Z,7.78
2022-10-31T14:58:10.893Z,6.55
2022-10-31T15:00:37.621Z,5.47
2022-10-31T15:03:04.540Z,5.50
2022-10-31T15:05:31.361Z,7.93
2022-10-31T15:07:58.058Z,6.85
2022-10-31T15:10:24.874Z,6.03
2022-10-31T15:12:51.603Z,7.75
2022-10-31T15:15:18.271Z,8.48
2022-10-31T15:17:45.017Z,7.28
2022-10-31T15:20:11.706Z,7.10
2022-10-31T15:22:38.438Z,5.18
2022-10-31T15:25:05.123Z,5.35
2022-10-31T15:27:32.515Z,10.52
2022-10-31T15:29:59.223Z,6.43
2022-10-31T15:32:25.894Z,7.70
2022-10-31T15:34:52.876Z,8.20
2022-10-31T15:37:19.645Z,8.93
2022-10-31T15:39:46.293Z,8.35
2022-10-31T15:42:12.988Z,10.45
2022-10-31T15:44:39.827Z,7.65
2022-10-31T15:47:06.559Z,5.68
2022-10-31T15:49:33.327Z,10.68
2022-10-31T15:52:01.111Z,10.23
2022-10-31T15:54:27.895Z,8.80
2022-10-31T15:56:54.684Z,9.48
2022-10-31T15:59:21.378Z,9.00
2022-10-31T16:01:48.216Z,6.20
2022-10-31T16:04:15.029Z,9.70
2022-10-31T16:06:41.721Z,6.20
2022-10-31T16:09:08.422Z,9.63
2022-10-31T16:11:35.212Z,9.82
2022-10-31T16:14:01.881Z,7.68
2022-10-31T16:16:35.304Z,7.65
2022-10-31T16:19:02.851Z,8.07
2022-10-31T16:21:29.530Z,5.43
2022-10-31T16:23:58.193Z,11.27
2022-10-31T16:26:25.097Z,9.32
2022-10-31T16:28:51.827Z,8.70
2022-10-31T16:31:19.887Z,5.88
2022-10-31T16:33:46.539Z,13.10
2022-10-31T16:36:33.892Z,7.60
2022-10-31T16:39:00.080Z,10.25
2022-10-31T16:41:26.861Z,7.35
2022-10-31T16:43:53.535Z,10.68
2022-10-31T16:46:20.328Z,8.27
2022-10-31T16:48:46.983Z,7.15
2022-10-31T16:51:13.673Z,8.00
2022-10-31T16:53:45.613Z,7.88
2022-10-31T16:56:13.373Z,8.88
2022-10-31T16:58:40.099Z,7.50
2022-10-31T17:01:06.875Z,12.45
2022-10-31T17:03:33.642Z,10.63
2022-10-31T17:06:00.337Z,7.15
2022-10-31T17:08:27.046Z,11.30
2022-10-31T17:10:53.735Z,8.93
2022-10-31T17:13:20.445Z,8.25
2022-10-31T17:15:47.154Z,8.77
2022-10-31T17:18:13.825Z,10.75
2022-10-31T17:20:40.528Z,15.07
2022-10-31T17:23:07.218Z,11.02
2022-10-31T17:25:33.892Z,9.80
2022-10-31T17:28:00.646Z,12.73
2022-10-31T17:30:27.404Z,10.07
2022-10-31T17:32:55.328Z,12.57
2022-10-31T17:35:22.031Z,11.45
2022-10-31T17:37:48.701Z,11.40
2022-10-31T17:40:15.358Z,13.30
2022-10-31T17:42:42.045Z,13.82
2022-10-31T17:45:08.703Z,11.85
2022-10-31T17:47:35.380Z,14.38
2022-10-31T17:50:02.077Z,12.38
2022-10-31T17:52:28.780Z,13.15
2022-10-31T17:54:55.453Z,15.15
2022-10-31T17:57:22.177Z,18.48
2022-10-31T17:59:48.956Z,17.42
2022-10-31T18:02:15.880Z,14.63
2022-10-31T18:04:42.822Z,17.65
2022-10-31T18:07:09.506Z,16.08
2022-10-31T18:09:36.219Z,14.55
2022-10-31T18:12:02.926Z,18.15
2022-10-31T18:14:29.703Z,14.63
2022-10-31T18:16:56.514Z,17.90
2022-10-31T18:19:23.195Z,25.38
2022-10-31T18:21:50.042Z,20.33
2022-10-31T18:24:16.701Z,24.70
2022-10-31T18:26:43.438Z,20.02
2022-10-31T18:29:10.140Z,20.27
2022-10-31T18:31:36.821Z,19.42
2022-10-31T18:34:03.550Z,20.58
2022-10-31T18:36:30.228Z,22.52
2022-10-31T18:38:57.120Z,25.88
2022-10-31T18:41:23.806Z,25.55
2022-10-31T18:43:50.658Z,23.45
2022-10-31T18:46:18.173Z,25.13
2022-10-31T18:48:44.914Z,21.70
2022-10-31T18:51:11.595Z,24.08
2022-10-31T18:53:38.337Z,26.85
2022-10-31T18:56:05.052Z,24.73
2022-10-31T18:58:31.731Z,25.38
2022-10-31T19:00:58.477Z,27.75
2022-10-31T19:03:26.338Z,27.10
2022-10-31T19:05:53.138Z,23.27
2022-10-31T19:08:19.912Z,24.73
2022-10-31T19:10:46.635Z,25.15
2022-10-31T19:13:13.316Z,28.17
2022-10-31T19:15:40.075Z,24.25
2022-10-31T19:18:06.812Z,24.80
2022-10-31T19:20:33.521Z,24.33
2022-10-31T19:23:00.511Z,24.33
2022-10-31T19:25:27.464Z,27.38
2022-10-31T19:27:54.153Z,27.02
2022-10-31T19:30:21.508Z,21.00
2022-10-31T19:32:48.288Z,25.23
2022-10-31T19:35:14.977Z,25.42
2022-10-31T19:37:42.468Z,22.33
2022-10-31T19:40:09.363Z,25.98
2022-10-31T19:42:36.051Z,25.58
2022-10-31T19:45:03.739Z,21.90
2022-10-31T19:47:30.459Z,24.92
2022-10-31T19:49:57.140Z,26.85
2022-10-31T19:52:23.889Z,26.58
2022-10-31T19:54:50.594Z,21.70
2022-10-31T19:57:18.538Z,20.73
2022-10-31T19:59:47.305Z,28.00
2022-10-31T20:02:19.737Z,27.27
2022-10-31T20:04:46.454Z,27.90
2022-10-31T20:07:13.391Z,32.28
2022-10-31T20:09:40.211Z,19.75
2022-10-31T20:12:06.899Z,23.70
2022-10-31T20:14:33.697Z,21.02
2022-10-31T20:17:00.353Z,21.65
2022-10-31T20:19:27.483Z,27.35
2022-10-31T20:21:54.295Z,21.95
2022-10-31T20:24:20.979Z,22.10
2022-10-31T20:26:47.645Z,24.10
2022-10-31T20:29:16.018Z,18.83
2022-10-31T20:31:42.838Z,18.85
2022-10-31T20:34:09.619Z,18.42
2022-10-31T20:36:36.783Z,21.35
2022-10-31T20:39:09.356Z,16.48
2022-10-31T20:41:39.596Z,16.48
2022-10-31T20:44:07.005Z,20.08
2022-10-31T20:46:33.755Z,16.25
2022-10-31T20:49:00.654Z,17.75
2022-10-31T20:51:33.165Z,15.93
2022-10-31T20:54:00.108Z,20.50
2022-10-31T20:56:27.079Z,14.10
2022-10-31T20:58:53.834Z,11.00
2022-10-31T21:01:20.686Z,17.70
2022-10-31T21:03:47.655Z,12.63
2022-10-31T21:06:14.393Z,18.92
2022-10-31T21:08:41.161Z,9.57
2022-10-31T21:11:08.549Z,13.50
2022-10-31T21:13:39.543Z,10.52
2022-10-31T21:16:07.643Z,8.98
2022-10-31T21:18:34.352Z,11.73
2022-10-31T21:21:01.117Z,12.73
2022-10-31T21:23:27.833Z,17.30
2022-10-31T21:25:54.703Z,15.98
2022-10-31T21:28:21.520Z,15.43
2022-10-31T21:30:48.238Z,12.68
2022-10-31T21:33:15.012Z,18.35
2022-10-31T21:35:42.092Z,15.32
2022-10-31T21:38:08.813Z,15.90
2022-10-31T21:40:35.918Z,16.85
2022-10-31T21:43:03.098Z,16.27
2022-10-31T21:45:30.210Z,14.20
2022-10-31T21:47:56.988Z,13.55
2022-10-31T21:50:24.026Z,15.07
2022-10-31T21:52:50.910Z,11.95
2022-10-31T21:55:17.790Z,15.10
2022-10-31T21:57:44.557Z,11.80
2022-10-31T22:00:11.430Z,12.20
2022-10-31T22:02:38.318Z,14.77
2022-10-31T22:05:05.390Z,16.42
2022-10-31T22:07:32.092Z,15.85
2022-10-31T22:09:58.859Z,8.57
2022-10-31T22:12:25.575Z,13.02
2022-10-31T22:14:52.396Z,13.18
2022-10-31T22:17:19.321Z,13.50
2022-10-31T22:19:46.028Z,12.95
2022-10-31T22:22:13.245Z,9.13
2022-10-31T22:24:40.132Z,7.85
2022-10-31T22:27:06.932Z,9.63
2022-10-31T22:29:35.414Z,8.93
2022-10-31T22:32:03.041Z,11.38
2022-10-31T22:34:29.813Z,11.15
2022-10-31T22:36:56.658Z,13.77
2022-10-31T22:39:23.445Z,10.95
2022-10-31T22:41:50.244Z,13.30
2022-10-31T22:44:16.989Z,10.75
2022-10-31T22:46:43.727Z,14.15
2022-10-31T22:49:10.552Z,10.63
2022-10-31T22:51:37.831Z,15.32
2022-10-31T22:54:04.567Z,10.98
2022-10-31T22:56:31.302Z,12.75
2022-10-31T22:58:57.972Z,15.25
2022-10-31T23:01:24.784Z,15.27
2022-10-31T23:03:51.558Z,14.38
2022-10-31T23:06:18.283Z,14.02
2022-10-31T23:08:45.066Z,12.57
2022-10-31T23:11:11.728Z,9.63
2022-10-31T23:13:57.125Z,10.48
2022-10-31T23:16:23.793Z,7.63
2022-10-31T23:18:50.754Z,6.50
2022-10-31T23:21:37.517Z,7.03
2022-10-31T23:24:04.269Z,8.88
2022-10-31T23:26:49.423Z,6.20
2022-10-31T23:29:16.109Z,9.65
2022-10-31T23:31:42.789Z,13.00
2022-10-31T23:34:09.488Z,10.82
2022-10-31T23:36:38.357Z,14.65
2022-10-31T23:39:05.066Z,15.73
2022-10-31T23:41:31.826Z,15.20
2022-10-31T23:43:58.545Z,12.90
2022-10-31T23:46:25.269Z,16.25
2022-10-31T23:48:53.581Z,15.45
2022-10-31T23:51:20.230Z,15.00
2022-10-31T23:53:46.959Z,22.40
2022-10-31T23:56:13.664Z,18.85
2022-10-31T23:58:40.392Z,12.52
